Time;durP1;ratioP1;P1;durP2;ratioP2;P2;SDS_P1;SDS_P2;PMS_P1;PMS_P2;Temp;Humidity;BMP_temperature;BMP_pressure;BME280_temperature;BME280_humidity;BME280_pressure;Samples;Min_cycle;Max_cycle;Signal;HPM_P1;HPM_P2
2023/03/19 00:02:19;;;;;;;29.30;27.70;;;;;;;17.26;56.31;100946.56;5012096;28;20475;-66
2023/03/19 00:04:45;;;;;;;29.63;28.02;;;;;;;17.25;56.39;100951.22;5021673;28;20087;-66
2023/03/19 00:07:11;;;;;;;28.63;27.02;;;;;;;17.23;56.01;100944.41;5026402;28;20037;-67
2023/03/19 00:09:37;;;;;;;27.17;25.85;;;;;;;17.21;56.11;100955.63;5030413;28;20462;-66
2023/03/19 00:12:02;;;;;;;28.90;27.40;;;;;;;17.21;56.18;100957.53;5029077;28;20033;-66
2023/03/19 00:14:28;;;;;;;27.92;26.42;;;;;;;17.19;56.10;100960.56;5011712;28;20092;-66
2023/03/19 00:16:53;;;;;;;29.00;27.25;;;;;;;17.19;55.85;100959.75;5002455;28;20044;-66
2023/03/19 00:19:18;;;;;;;29.10;27.50;;;;;;;17.18;55.81;100956.16;5012122;28;20041;-66
2023/03/19 00:21:44;;;;;;;29.25;27.75;;;;;;;17.17;55.92;100960.00;5015528;28;20084;-67
2023/03/19 00:24:09;;;;;;;28.38;26.88;;;;;;;17.16;55.73;100954.81;5034100;28;20033;-68
2023/03/19 00:26:36;;;;;;;29.60;28.05;;;;;;;17.15;56.05;100964.94;5034979;28;20037;-67
2023/03/19 00:29:02;;;;;;;29.23;27.73;;;;;;;17.12;55.92;100951.84;5032842;28;20041;-67
2023/03/19 00:31:28;;;;;;;29.50;27.90;;;;;;;17.13;55.92;100967.13;5015500;28;20029;-67
2023/03/19 00:33:56;;;;;;;29.98;28.38;;;;;;;17.12;56.20;100964.69;5015827;28;20725;-67
2023/03/19 00:36:22;;;;;;;28.58;27.02;;;;;;;17.11;55.81;100963.03;5015398;28;20481;-67
2023/03/19 00:38:47;;;;;;;27.73;26.23;;;;;;;17.09;56.25;100964.16;5018256;28;20061;-67
2023/03/19 00:41:14;;;;;;;27.80;26.35;;;;;;;17.09;55.89;100963.34;5022720;28;20553;-67
2023/03/19 00:43:40;;;;;;;27.17;25.77;;;;;;;17.07;56.08;100955.41;5015645;28;20088;-67
2023/03/19 00:46:05;;;;;;;28.77;27.27;;;;;;;17.06;56.15;100970.19;4997633;28;20041;-67
2023/03/19 00:48:31;;;;;;;27.65;26.25;;;;;;;17.05;56.19;100960.34;5021597;28;20482;-67
2023/03/19 00:51:05;;;;;;;28.17;26.58;;;;;;;17.05;56.17;100964.97;5034465;28;20038;-67
2023/03/19 00:53:30;;;;;;;28.13;26.55;;;;;;;17.03;56.17;100962.56;5020593;28;20029;-67
2023/03/19 00:55:56;;;;;;;27.30;25.90;;;;;;;17.02;56.08;100966.38;5015424;28;20111;-67
2023/03/19 00:58:21;;;;;;;28.20;26.60;;;;;;;17.00;55.70;100963.09;5017575;28;20034;-67
2023/03/19 01:00:47;;;;;;;28.40;26.73;;;;;;;17.00;55.84;100965.00;5032357;28;20537;-67
2023/03/19 01:03:13;;;;;;;27.85;26.45;;;;;;;16.98;56.25;100959.81;5017254;28;20441;-67
2023/03/19 01:05:38;;;;;;;29.95;28.35;;;;;;;16.97;55.98;100971.84;5034690;28;20057;-67
2023/03/19 01:08:03;;;;;;;27.10;25.55;;;;;;;16.96;55.74;100972.13;5016832;28;20076;-67
2023/03/19 01:10:32;;;;;;;29.02;27.42;;;;;;;16.95;55.87;100974.03;5032845;28;20109;-67
2023/03/19 01:12:57;;;;;;;27.77;26.25;;;;;;;16.94;55.88;100974.31;5022198;28;20034;-67
2023/03/19 01:15:22;;;;;;;28.08;26.38;;;;;;;16.92;56.01;100969.13;5014648;28;20037;-67
2023/03/19 01:17:48;;;;;;;29.02;27.52;;;;;;;16.92;56.17;100969.13;5014952;28;20044;-67
2023/03/19 01:20:17;;;;;;;27.15;25.67;;;;;;;16.90;55.79;100970.50;5023962;28;20067;-67
2023/03/19 01:22:43;;;;;;;27.52;26.13;;;;;;;16.89;55.86;100969.72;5022957;28;20049;-67
2023/03/19 01:25:11;;;;;;;28.13;26.63;;;;;;;16.88;56.27;100970.78;5014231;28;20042;-67
2023/03/19 01:27:37;;;;;;;28.05;26.55;;;;;;;16.87;56.02;100967.25;5014535;28;20113;-67
2023/03/19 01:30:03;;;;;;;27.70;26.15;;;;;;;16.85;56.02;100966.69;5017427;28;20459;-67
2023/03/19 01:32:28;;;;;;;30.88;29.05;;;;;;;16.84;56.23;100964.28;5032148;28;20042;-67
2023/03/19 01:34:54;;;;;;;27.67;26.08;;;;;;;16.83;56.14;100966.19;5024364;28;20042;-67
2023/03/19 01:37:19;;;;;;;29.00;27.50;;;;;;;16.82;56.10;100967.25;5014075;28;20057;-67
2023/03/19 01:39:45;;;;;;;28.60;27.10;;;;;;;16.82;55.82;100970.00;5013694;28;20120;-68
2023/03/19 01:42:11;;;;;;;29.08;27.50;;;;;;;16.81;55.99;100975.75;5027960;28;20041;-66
2023/03/19 01:44:38;;;;;;;28.13;26.30;;;;;;;16.80;55.92;100974.09;5013993;28;20446;-66
2023/03/19 01:47:16;;;;;;;27.08;25.55;;;;;;;16.77;56.23;100971.91;5014278;28;20040;-66
2023/03/19 01:49:46;;;;;;;28.07;26.47;;;;;;;16.76;55.88;100976.53;5013703;28;20058;-66
2023/03/19 01:52:13;;;;;;;27.95;26.40;;;;;;;16.76;56.20;100982.00;5015649;28;20053;-66
2023/03/19 01:54:39;;;;;;;28.50;27.00;;;;;;;16.75;56.29;100977.63;5013594;28;20037;-66
2023/03/19 01:57:10;;;;;;;27.77;26.13;;;;;;;16.75;56.23;100979.53;5014410;28;20034;-66
2023/03/19 01:59:39;;;;;;;29.27;27.67;;;;;;;16.73;56.08;100971.66;5013968;28;20030;-67
2023/03/19 02:02:11;;;;;;;27.50;26.00;;;;;;;16.73;56.13;100973.53;5021261;28;20385;-68
2023/03/19 02:04:39;;;;;;;27.48;25.98;;;;;;;16.71;55.88;100979.28;5028483;28;20030;-67
2023/03/19 02:07:06;;;;;;;27.20;25.80;;;;;;;16.70;56.32;100974.91;5014187;28;20057;-67
2023/03/19 02:09:32;;;;;;;29.05;27.45;;;;;;;16.70;56.03;100974.09;5013376;28;20145;-67
2023/03/19 02:11:58;;;;;;;28.52;26.83;;;;;;;16.68;56.35;100971.63;5016634;28;20525;-67
2023/03/19 02:14:24;;;;;;;28.67;27.13;;;;;;;16.67;56.06;100979.00;5022988;28;20518;-67
2023/03/19 02:16:50;;;;;;;28.48;26.77;;;;;;;16.66;56.09;100974.66;5013847;28;20673;-67
2023/03/19 02:19:38;;;;;;;28.73;27.13;;;;;;;16.64;56.29;100985.03;5013470;28;20057;-67
2023/03/19 02:22:04;;;;;;;26.60;25.10;;;;;;;16.64;55.78;100976.03;5027856;28;20037;-67
2023/03/19 02:24:37;;;;;;;27.98;26.27;;;;;;;16.62;56.04;100978.22;5022463;28;20389;-67
2023/03/19 02:27:05;;;;;;;27.05;25.50;;;;;;;16.62;55.78;100975.50;5013540;28;20030;-67
2023/03/19 02:29:30;;;;;;;29.20;27.50;;;;;;;16.61;56.22;100976.59;5017845;28;20034;-67
2023/03/19 02:31:56;;;;;;;28.65;27.05;;;;;;;16.61;55.77;100977.41;5029784;28;20045;-67
2023/03/19 02:34:21;;;;;;;28.23;26.73;;;;;;;16.60;56.04;100980.41;5013556;28;20049;-67
2023/03/19 02:36:51;;;;;;;27.60;26.10;;;;;;;16.59;56.16;100989.69;5013089;28;20037;-67
2023/03/19 02:39:31;;;;;;;27.67;26.17;;;;;;;16.57;55.78;100986.41;5013740;28;20057;-67
2023/03/19 02:41:58;;;;;;;26.40;24.92;;;;;;;16.57;55.91;100991.88;5032285;28;20104;-67
2023/03/19 02:44:23;;;;;;;28.52;26.95;;;;;;;16.55;56.00;100978.50;5032480;28;20033;-66
2023/03/19 02:46:49;;;;;;;28.33;26.77;;;;;;;16.54;56.06;100985.06;5032025;28;20029;-67
2023/03/19 02:49:14;;;;;;;27.83;25.95;;;;;;;16.54;56.34;100982.34;5011006;28;20108;-66
2023/03/19 02:51:40;;;;;;;29.60;27.70;;;;;;;16.53;56.17;100980.72;5010252;28;20029;-66
2023/03/19 02:54:06;;;;;;;29.23;27.67;;;;;;;16.53;56.17;100980.72;5001530;28;20050;-67
2023/03/19 02:56:32;;;;;;;30.98;29.08;;;;;;;16.52;56.28;100980.97;4992808;28;20030;-67
2023/03/19 02:58:58;;;;;;;29.70;28.10;;;;;;;16.50;55.87;100983.97;4992937;28;20438;-66
2023/03/19 03:01:23;;;;;;;29.35;27.67;;;;;;;16.50;55.88;100983.16;5002832;28;20038;-66
2023/03/19 03:03:49;;;;;;;28.00;26.33;;;;;;;16.50;56.00;100991.34;4993771;28;20041;-66
2023/03/19 03:06:14;;;;;;;27.85;26.05;;;;;;;16.49;56.07;100984.25;4993122;28;20030;-66
2023/03/19 03:08:40;;;;;;;29.65;27.90;;;;;;;16.48;56.37;100979.88;4992534;28;20046;-66
2023/03/19 03:11:06;;;;;;;26.33;24.88;;;;;;;16.47;55.94;100992.72;4994442;28;20386;-66
2023/03/19 03:13:32;;;;;;;28.80;27.15;;;;;;;16.45;56.16;100981.25;5007493;28;20478;-67
2023/03/19 03:15:57;;;;;;;31.30;29.52;;;;;;;16.45;56.09;100981.25;4993148;28;20041;-66
2023/03/19 03:18:23;;;;;;;29.13;27.25;;;;;;;16.44;56.00;100985.09;4995871;28;20390;-66
2023/03/19 03:20:48;;;;;;;28.67;27.08;;;;;;;16.43;56.20;100989.72;4998938;28;20042;-66
2023/03/19 03:23:14;;;;;;;31.50;29.60;;;;;;;16.43;56.21;100994.38;4999329;28;20112;-66
2023/03/19 03:25:40;;;;;;;29.20;27.48;;;;;;;16.42;56.18;100984.53;4993037;28;20040;-67
2023/03/19 03:28:05;;;;;;;27.05;25.52;;;;;;;16.40;56.11;100979.38;4994200;28;20065;-67
2023/03/19 03:30:31;;;;;;;27.80;26.17;;;;;;;16.39;56.19;100980.47;5009368;28;20132;-67
2023/03/19 03:32:57;;;;;;;27.30;25.70;;;;;;;16.38;56.39;100978.03;5001386;28;20378;-66
2023/03/19 03:35:22;;;;;;;29.67;27.83;;;;;;;16.37;56.14;100982.63;4996097;28;20050;-66
2023/03/19 03:37:49;;;;;;;27.02;25.33;;;;;;;16.36;56.29;100989.19;4992145;28;20022;-67
2023/03/19 03:40:15;;;;;;;27.33;25.83;;;;;;;16.36;56.10;100988.38;4997837;28;20140;-67
2023/03/19 03:42:41;;;;;;;29.77;27.98;;;;;;;16.35;56.21;100998.44;5002634;28;20534;-66
2023/03/19 03:45:09;;;;;;;27.23;25.63;;;;;;;16.34;55.89;100996.00;5000853;28;20041;-66
2023/03/19 03:47:35;;;;;;;28.77;26.92;;;;;;;16.33;56.13;100999.81;4991542;28;20105;-67
2023/03/19 03:50:00;;;;;;;27.98;26.27;;;;;;;16.32;56.22;101004.44;5009822;28;20545;-66
2023/03/19 03:52:30;;;;;;;27.20;25.60;;;;;;;16.31;56.30;100997.38;5013720;28;20033;-67
2023/03/19 03:54:57;;;;;;;28.02;26.33;;;;;;;16.30;55.87;100998.44;5027067;28;20038;-67
2023/03/19 03:57:23;;;;;;;27.63;26.02;;;;;;;16.29;55.79;100996.03;5011341;28;20037;-67
2023/03/19 03:59:48;;;;;;;29.55;27.70;;;;;;;16.27;55.88;100990.84;5011494;28;20034;-67
2023/03/19 04:02:14;;;;;;;29.92;27.88;;;;;;;16.28;55.82;100991.63;5019016;28;20037;-66
2023/03/19 04:04:40;;;;;;;28.23;26.50;;;;;;;16.24;56.12;100991.38;5017943;28;20038;-66
2023/03/19 04:07:05;;;;;;;27.42;25.90;;;;;;;16.23;56.19;100998.75;5025937;28;20048;-66
2023/03/19 04:09:31;;;;;;;27.42;25.67;;;;;;;16.22;56.04;100990.84;5012127;28;20034;-66
2023/03/19 04:11:57;;;;;;;28.30;26.50;;;;;;;16.21;56.09;101000.94;5021384;28;20037;-66
2023/03/19 04:14:22;;;;;;;28.05;26.35;;;;;;;16.20;55.94;100998.47;5012055;28;20389;-66
2023/03/19 04:16:48;;;;;;;28.60;26.80;;;;;;;16.19;55.97;101005.84;5026928;28;20065;-66
2023/03/19 04:19:13;;;;;;;27.08;25.38;;;;;;;16.18;56.14;101006.94;5011673;28;20115;-66
2023/03/19 04:21:38;;;;;;;27.73;25.95;;;;;;;16.16;56.21;101000.13;4999170;28;20040;-66
2023/03/19 04:24:04;;;;;;;27.08;25.42;;;;;;;16.15;56.22;100996.59;5031479;28;20030;-66
2023/03/19 04:26:30;;;;;;;26.65;25.00;;;;;;;16.15;56.19;101001.19;5030607;28;20039;-66
2023/03/19 04:28:57;;;;;;;28.10;26.40;;;;;;;16.13;55.72;100998.75;5015987;28;20528;-66
2023/03/19 04:31:23;;;;;;;27.25;25.55;;;;;;;16.12;56.17;101001.75;5012086;28;20389;-66
2023/03/19 04:33:48;;;;;;;27.45;25.77;;;;;;;16.11;55.87;101000.13;4994133;28;20045;-67
2023/03/19 04:36:14;;;;;;;26.10;24.50;;;;;;;16.08;55.95;101001.50;5019555;28;20088;-67
2023/03/19 04:38:39;;;;;;;29.90;27.90;;;;;;;16.08;56.32;101006.13;5016957;28;20034;-67
2023/03/19 04:41:04;;;;;;;27.40;25.83;;;;;;;16.06;55.92;101014.56;5011678;28;20026;-67
2023/03/19 04:43:30;;;;;;;28.33;26.73;;;;;;;16.05;56.00;101012.94;5025982;28;20389;-67
2023/03/19 04:45:55;;;;;;;28.50;26.70;;;;;;;16.03;55.91;101012.41;5013468;28;20062;-67
2023/03/19 04:48:21;;;;;;;25.67;24.20;;;;;;;16.01;56.21;101012.66;5030778;28;20033;-67
2023/03/19 04:50:50;;;;;;;29.50;27.58;;;;;;;16.00;56.10;101011.03;4993495;28;20060;-67
2023/03/19 04:53:16;;;;;;;28.20;26.40;;;;;;;15.99;55.89;101012.09;5028755;28;20033;-67
2023/03/19 04:55:41;;;;;;;28.85;26.95;;;;;;;15.98;56.00;101013.22;5015710;28;20122;-66
2023/03/19 04:58:08;;;;;;;28.30;26.40;;;;;;;15.96;56.20;101017.28;5028338;28;20037;-68
2023/03/19 05:00:33;;;;;;;27.52;25.85;;;;;;;15.96;55.91;101030.91;5011294;28;20038;-67
2023/03/19 05:02:58;;;;;;;26.85;25.10;;;;;;;15.94;55.95;101036.63;5028716;28;20095;-67
2023/03/19 05:05:24;;;;;;;27.00;25.23;;;;;;;15.93;56.08;101021.38;5024765;28;20044;-67
2023/03/19 05:07:49;;;;;;;27.50;25.83;;;;;;;15.92;56.07;101033.34;5022915;28;20390;-67
2023/03/19 05:10:15;;;;;;;26.55;25.00;;;;;;;15.88;56.18;101032.28;5024497;28;20367;-66
2023/03/19 05:12:41;;;;;;;26.30;24.73;;;;;;;15.88;56.16;101035.00;5014087;28;20038;-67
2023/03/19 05:15:07;;;;;;;27.70;26.10;;;;;;;15.86;56.20;101034.44;5023831;28;20041;-66
2023/03/19 05:17:32;;;;;;;28.35;26.30;;;;;;;15.87;55.84;101040.69;5017143;28;20037;-67
2023/03/19 05:19:58;;;;;;;28.35;26.55;;;;;;;15.84;56.16;101039.34;5014169;28;20088;-67
2023/03/19 05:22:23;;;;;;;29.05;27.25;;;;;;;15.84;55.94;101047.50;5014510;28;20038;-67
2023/03/19 05:24:49;;;;;;;30.15;28.30;;;;;;;15.81;55.99;101039.88;5021083;28;20029;-67
2023/03/19 05:27:14;;;;;;;26.40;24.80;;;;;;;15.81;56.08;101045.34;5025250;28;20120;-66
2023/03/19 05:29:39;;;;;;;25.58;24.17;;;;;;;15.79;55.91;101048.31;5020232;28;20045;-67
2023/03/19 05:32:05;;;;;;;27.83;25.73;;;;;;;15.77;56.27;101047.78;5013603;28;20079;-66
2023/03/19 05:34:31;;;;;;;26.85;25.25;;;;;;;15.76;55.94;101037.97;5015024;28;20041;-67
2023/03/19 05:36:57;;;;;;;26.95;25.23;;;;;;;15.74;55.95;101040.13;5031189;28;20084;-67
2023/03/19 05:39:22;;;;;;;27.10;25.27;;;;;;;15.73;56.14;101041.25;5017487;28;20439;-67
2023/03/19 05:41:49;;;;;;;27.00;25.33;;;;;;;15.72;56.05;101049.66;5013794;28;20064;-67
2023/03/19 05:44:15;;;;;;;26.17;24.45;;;;;;;15.71;56.04;101054.28;5014184;28;20157;-67
2023/03/19 05:46:42;;;;;;;25.75;24.38;;;;;;;15.69;55.89;101056.47;5015316;28;20042;-66
2023/03/19 05:49:08;;;;;;;26.92;25.25;;;;;;;15.67;56.04;101061.31;5021995;28;20436;-67
2023/03/19 05:51:33;;;;;;;26.80;25.20;;;;;;;15.65;55.96;101055.34;5019913;28;20161;-67
2023/03/19 05:53:59;;;;;;;27.85;26.13;;;;;;;15.65;55.73;101063.53;5013496;28;20061;-67
2023/03/19 05:56:25;;;;;;;29.33;27.60;;;;;;;15.65;56.06;101062.69;5022741;28;20025;-67
2023/03/19 05:58:50;;;;;;;26.75;25.08;;;;;;;15.62;55.95;101066.75;5018281;28;20025;-67
2023/03/19 06:01:16;;;;;;;27.27;25.50;;;;;;;15.62;55.83;101074.13;5017628;28;20038;-67
2023/03/19 06:03:41;;;;;;;27.65;25.85;;;;;;;15.58;55.84;101080.09;5013908;28;20049;-67
2023/03/19 06:06:07;;;;;;;26.75;25.25;;;;;;;15.57;55.77;101070.31;4999117;28;20041;-67
2023/03/19 06:08:32;;;;;;;26.42;24.83;;;;;;;15.57;55.98;101080.38;5005537;28;20037;-67
2023/03/19 06:10:58;;;;;;;28.70;26.88;;;;;;;15.54;56.07;101092.59;5023644;28;20030;-67
2023/03/19 06:13:23;;;;;;;25.35;23.95;;;;;;;15.55;56.23;101086.09;5019534;28;20042;-67
2023/03/19 06:15:49;;;;;;;26.35;24.77;;;;;;;15.52;55.95;101086.63;5013171;28;20144;-67
2023/03/19 06:18:15;;;;;;;27.25;25.75;;;;;;;15.51;55.84;101089.63;5016979;28;20045;-67
2023/03/19 06:20:41;;;;;;;25.13;23.63;;;;;;;15.50;55.68;101093.44;5026145;28;20124;-67
2023/03/19 06:23:07;;;;;;;27.17;25.25;;;;;;;15.48;55.66;101096.41;5014009;28;20915;-67
2023/03/19 06:25:32;;;;;;;25.23;23.75;;;;;;;15.47;55.77;101100.22;5013292;28;20089;-67
2023/03/19 06:27:57;;;;;;;26.08;24.48;;;;;;;15.46;56.07;101101.31;5018665;28;20034;-67
2023/03/19 06:30:23;;;;;;;24.90;23.40;;;;;;;15.45;56.08;101112.47;5019459;28;20038;-67
2023/03/19 06:32:49;;;;;;;26.35;24.67;;;;;;;15.44;55.88;101111.63;5029369;28;20033;-67
2023/03/19 06:35:14;;;;;;;26.17;24.50;;;;;;;15.42;56.02;101113.81;5017504;28;20049;-67
2023/03/19 06:37:40;;;;;;;26.40;24.55;;;;;;;15.42;55.99;101115.72;5013435;28;20037;-67
2023/03/19 06:40:06;;;;;;;27.30;25.38;;;;;;;15.40;55.90;101116.00;5013912;28;20363;-67
2023/03/19 06:42:31;;;;;;;26.02;24.30;;;;;;;15.39;55.82;101116.25;5029854;28;20052;-67
2023/03/19 06:44:57;;;;;;;26.65;24.77;;;;;;;15.38;55.86;101122.78;4995155;28;20034;-67
2023/03/19 06:47:22;;;;;;;24.77;23.23;;;;;;;15.36;56.05;101123.84;5013032;28;20447;-67
2023/03/19 06:49:48;;;;;;;26.55;24.95;;;;;;;15.34;55.91;101126.00;5012758;28;20108;-67
2023/03/19 06:52:13;;;;;;;26.35;24.45;;;;;;;15.34;55.83;101127.91;4999048;28;20490;-67
2023/03/19 06:54:38;;;;;;;25.20;23.70;;;;;;;15.33;55.98;101129.03;5023329;28;20041;-67
2023/03/19 06:57:04;;;;;;;25.27;23.67;;;;;;;15.32;55.72;101127.38;5012586;28;20038;-67
2023/03/19 06:59:29;;;;;;;25.38;23.77;;;;;;;15.31;56.00;101133.91;5009942;28;20458;-67
2023/03/19 07:01:55;;;;;;;27.20;25.58;;;;;;;15.30;56.12;101130.38;5030536;28;20120;-67
2023/03/19 07:04:20;;;;;;;26.55;24.75;;;;;;;15.29;55.87;101130.63;5022702;28;20359;-67
2023/03/19 07:06:46;;;;;;;24.92;23.25;;;;;;;15.27;55.89;101139.06;5023788;28;20068;-67
2023/03/19 07:09:12;;;;;;;24.55;23.13;;;;;;;15.27;56.07;101140.94;5031519;28;20392;-67
2023/03/19 07:11:38;;;;;;;25.08;23.67;;;;;;;15.26;55.87;101139.31;5013359;28;20413;-67
2023/03/19 07:14:03;;;;;;;27.35;25.65;;;;;;;15.26;55.74;101150.19;5031201;28;20033;-67
2023/03/19 07:16:29;;;;;;;24.17;22.45;;;;;;;15.24;56.10;101146.91;5027269;28;20228;-67
2023/03/19 07:18:55;;;;;;;25.02;23.52;;;;;;;15.22;56.19;101149.94;5011918;28;20034;-68
2023/03/19 07:21:21;;;;;;;25.55;23.85;;;;;;;15.22;56.16;101160.81;5012289;28;20121;-67
2023/03/19 07:23:46;;;;;;;25.67;23.75;;;;;;;15.21;55.66;101163.78;5030729;28;20124;-67
2023/03/19 07:26:12;;;;;;;25.45;23.73;;;;;;;15.20;55.94;101164.88;5014444;28;20069;-67
2023/03/19 07:28:37;;;;;;;24.73;23.13;;;;;;;15.19;56.23;101161.31;5012287;28;20476;-67
2023/03/19 07:31:03;;;;;;;26.92;24.88;;;;;;;15.17;56.13;101168.94;5010631;28;20034;-67
2023/03/19 07:33:29;;;;;;;25.10;23.30;;;;;;;15.16;56.03;101167.28;5024039;28;20037;-67
2023/03/19 07:35:54;;;;;;;24.48;22.85;;;;;;;15.16;55.85;101170.00;5023167;28;20513;-68
2023/03/19 07:38:20;;;;;;;24.02;22.42;;;;;;;15.15;55.81;101171.91;5012162;28;20030;-67
2023/03/19 07:40:45;;;;;;;25.23;23.50;;;;;;;15.14;55.79;101181.19;5012634;28;20069;-67
2023/03/19 07:43:10;;;;;;;25.65;24.08;;;;;;;15.14;56.15;101183.06;5018550;28;20377;-67
2023/03/19 07:45:36;;;;;;;25.73;23.77;;;;;;;15.13;55.84;101182.25;5025346;28;20437;-67
2023/03/19 07:48:02;;;;;;;25.13;23.67;;;;;;;15.13;55.97;101179.53;5018849;28;20062;-67
2023/03/19 07:50:30;;;;;;;25.67;23.90;;;;;;;15.13;55.80;101193.13;5011681;28;20104;-67
2023/03/19 07:52:56;;;;;;;24.98;23.17;;;;;;;15.12;56.06;101182.53;5016098;28;20038;-67
2023/03/19 07:55:21;;;;;;;23.42;22.02;;;;;;;15.13;56.06;101186.88;5013461;28;20432;-67
2023/03/19 07:57:47;;;;;;;24.83;23.23;;;;;;;15.12;56.00;101183.34;5024855;28;20049;-67
2023/03/19 08:00:13;;;;;;;25.05;23.33;;;;;;;15.12;55.90;101188.78;5011031;28;20062;-67
2023/03/19 08:02:39;;;;;;;24.13;22.70;;;;;;;15.12;56.12;101193.41;5011755;28;20092;-67
2023/03/19 08:05:05;;;;;;;24.85;23.45;;;;;;;15.11;56.07;101195.28;5015831;28;20050;-67
2023/03/19 08:07:31;;;;;;;26.02;24.23;;;;;;;15.11;56.04;101199.91;5014491;28;20112;-67
2023/03/19 08:09:57;;;;;;;25.25;23.35;;;;;;;15.11;56.13;101203.44;5011650;28;20410;-67
2023/03/19 08:12:28;;;;;;;26.38;24.58;;;;;;;15.10;55.90;101196.38;5011090;28;20036;-68
2023/03/19 08:14:54;;;;;;;26.67;25.10;;;;;;;15.10;55.97;101199.09;5003250;28;20097;-66
2023/03/19 08:17:20;;;;;;;24.58;23.08;;;;;;;15.09;56.10;101199.34;5024298;28;20037;-66
2023/03/19 08:19:45;;;;;;;28.23;26.48;;;;;;;15.09;56.30;101200.19;5011563;28;20043;-66
2023/03/19 08:22:11;;;;;;;28.33;26.17;;;;;;;15.09;56.17;101207.50;5011255;28;20044;-66
2023/03/19 08:24:36;;;;;;;25.55;24.05;;;;;;;15.09;56.21;101207.50;4999122;28;20056;-66
2023/03/19 08:27:02;;;;;;;27.08;25.13;;;;;;;15.09;55.73;101219.22;5021329;28;20044;-66
2023/03/19 08:29:28;;;;;;;25.50;23.88;;;;;;;15.08;56.01;101212.13;5014883;28;20034;-66
2023/03/19 08:31:54;;;;;;;26.45;24.67;;;;;;;15.08;55.82;101211.31;4994467;28;20377;-66
2023/03/19 08:34:21;;;;;;;30.02;27.73;;;;;;;15.10;55.94;101217.31;5011341;28;20034;-66
2023/03/19 08:36:46;;;;;;;27.40;25.45;;;;;;;15.09;55.96;101219.22;5030125;28;20128;-66
2023/03/19 08:39:12;;;;;;;27.60;25.48;;;;;;;15.10;55.77;101223.59;5014203;28;20113;-66
2023/03/19 08:41:38;;;;;;;28.98;26.40;;;;;;;15.10;55.97;101220.88;5010849;28;20061;-66
2023/03/19 08:44:03;;;;;;;30.77;28.35;;;;;;;15.10;56.04;101220.88;5033942;28;20044;-67
2023/03/19 08:46:29;;;;;;;25.50;23.70;;;;;;;15.12;55.76;101226.06;5015566;28;20061;-66
2023/03/19 08:48:54;;;;;;;24.55;23.10;;;;;;;15.12;56.22;101218.72;5005151;28;20049;-65
2023/03/19 08:51:20;;;;;;;28.20;25.85;;;;;;;15.12;56.08;101218.72;5025249;28;20648;-66
2023/03/19 08:53:46;;;;;;;28.58;26.33;;;;;;;15.14;56.03;101224.72;4995074;28;20037;-66
2023/03/19 08:56:11;;;;;;;27.85;25.95;;;;;;;15.15;55.95;101226.34;5033116;28;20406;-66
2023/03/19 08:58:36;;;;;;;27.50;25.85;;;;;;;15.17;56.23;101217.94;5026732;28;20116;-66
2023/03/19 09:01:09;;;;;;;31.27;28.50;;;;;;;15.18;55.90;101222.28;5015377;28;20046;-66
2023/03/19 09:03:39;;;;;;;27.35;25.40;;;;;;;15.19;55.96;101217.66;5014752;28;20448;-66
2023/03/19 09:06:06;;;;;;;27.75;25.73;;;;;;;15.20;55.95;101228.28;5019351;28;20025;-67
2023/03/19 09:08:32;;;;;;;26.27;24.58;;;;;;;15.22;55.95;101230.72;5030811;28;20466;-66
2023/03/19 09:10:58;;;;;;;27.77;25.90;;;;;;;15.23;55.61;101226.94;5016351;28;20465;-66
2023/03/19 09:13:24;;;;;;;28.02;25.52;;;;;;;15.24;55.92;101228.56;5033535;28;20044;-66
2023/03/19 09:15:50;;;;;;;27.23;25.30;;;;;;;15.24;55.97;101225.84;5016047;28;20108;-66
2023/03/19 09:18:15;;;;;;;28.70;26.60;;;;;;;15.26;55.59;101235.38;5019595;28;20448;-66
2023/03/19 09:20:41;;;;;;;27.55;25.40;;;;;;;15.28;56.14;101238.66;5019118;28;20041;-66
2023/03/19 09:23:07;;;;;;;27.08;25.23;;;;;;;15.29;55.84;101231.31;5012202;28;20037;-67
2023/03/19 09:25:32;;;;;;;29.13;26.90;;;;;;;15.31;56.06;101237.31;5016204;28;20033;-68
2023/03/19 09:27:58;;;;;;;27.67;25.58;;;;;;;15.32;55.91;101241.69;5033663;28;20438;-67
2023/03/19 09:30:23;;;;;;;28.67;26.40;;;;;;;15.34;55.88;101244.97;5014950;28;20807;-67
2023/03/19 09:32:48;;;;;;;30.38;27.70;;;;;;;15.36;55.73;101251.78;5032571;28;20041;-67
2023/03/19 09:35:14;;;;;;;29.20;26.95;;;;;;;15.38;56.00;101248.81;5033125;28;20508;-66
2023/03/19 09:37:40;;;;;;;29.45;26.95;;;;;;;15.41;56.06;101250.19;5033920;28;20034;-67
2023/03/19 09:40:07;;;;;;;29.33;26.98;;;;;;;15.42;56.19;101259.97;5023195;28;20124;-67
2023/03/19 09:42:57;;;;;;;29.83;27.52;;;;;;;15.43;56.35;101262.44;5014230;28;20420;-67
2023/03/19 09:45:23;;;;;;;29.88;27.23;;;;;;;15.46;56.02;101275.53;5013794;28;20525;-66
2023/03/19 09:47:54;;;;;;;31.60;29.15;;;;;;;15.48;55.77;101265.22;5017376;28;20029;-67
2023/03/19 09:50:23;;;;;;;29.02;26.80;;;;;;;15.51;55.91;101264.69;5013393;28;20052;-67
2023/03/19 09:52:56;;;;;;;29.15;26.73;;;;;;;15.53;56.05;101269.88;5014012;28;20037;-66
2023/03/19 09:55:57;;;;;;;29.83;27.45;;;;;;;15.52;56.17;101279.94;5012763;28;20025;-66
2023/03/19 09:58:35;;;;;;;29.55;27.20;;;;;;;15.55;55.88;101278.59;4941574;28;20479;-66
2023/03/19 10:01:01;;;;;;;29.65;27.13;;;;;;;15.57;56.34;101279.13;5007961;28;20057;-66
2023/03/19 10:03:30;;;;;;;28.88;26.85;;;;;;;15.61;56.38;101282.97;5014725;28;20040;-66
2023/03/19 10:06:18;;;;;;;31.90;29.25;;;;;;;15.62;56.24;101286.53;5032142;28;20036;-66
2023/03/19 10:09:21;;;;;;;30.90;28.52;;;;;;;15.61;56.20;101287.63;5029765;28;20029;-66
2023/03/19 10:12:18;;;;;;;28.60;26.50;;;;;;;15.63;56.41;101286.28;5015830;28;20041;-66
2023/03/19 10:15:10;;;;;;;27.17;25.23;;;;;;;15.64;55.95;101290.63;4999207;28;20034;-67
2023/03/19 10:17:54;;;;;;;27.45;25.35;;;;;;;15.66;56.36;101290.38;4990501;28;20536;-67
2023/03/19 10:20:47;;;;;;;30.52;27.63;;;;;;;15.69;56.46;101287.97;5015576;28;20030;-68
2023/03/19 10:23:32;;;;;;;27.38;25.55;;;;;;;15.68;56.33;101297.19;5023655;28;20132;-68
2023/03/19 10:26:01;;;;;;;30.73;28.33;;;;;;;15.72;56.73;101298.34;5032579;28;20029;-68
2023/03/19 10:28:28;;;;;;;32.20;29.40;;;;;;;15.75;56.71;101297.81;5032113;28;20052;-67
2023/03/19 10:31:10;;;;;;;29.05;26.67;;;;;;;15.78;56.68;101291.84;5018682;28;20164;-68
2023/03/19 10:33:43;;;;;;;30.35;27.88;;;;;;;15.80;56.69;101302.47;5021456;28;20037;-67
2023/03/19 10:36:10;;;;;;;31.48;28.90;;;;;;;15.83;56.45;101304.66;5013286;28;20061;-68
2023/03/19 10:38:43;;;;;;;27.33;25.42;;;;;;;15.84;56.70;101309.03;5028552;28;20061;-67
2023/03/19 10:41:14;;;;;;;28.77;26.73;;;;;;;15.87;56.90;101310.41;5027585;28;20077;-67
2023/03/19 10:43:40;;;;;;;33.90;30.90;;;;;;;15.90;56.87;101315.31;5018434;28;20544;-67
2023/03/19 10:46:11;;;;;;;30.17;27.98;;;;;;;15.92;56.68;101315.88;5012640;28;20040;-66
2023/03/19 10:48:43;;;;;;;30.90;28.23;;;;;;;15.96;56.86;101308.81;4978676;28;20041;-66
2023/03/19 10:51:14;;;;;;;32.20;29.55;;;;;;;15.99;56.60;101311.81;5021955;28;20057;-67
2023/03/19 10:53:40;;;;;;;30.98;28.75;;;;;;;16.01;56.67;101301.47;5018874;28;20112;-68
2023/03/19 10:56:07;;;;;;;28.13;25.92;;;;;;;16.05;56.77;101315.41;5018487;28;20120;-67
2023/03/19 10:58:34;;;;;;;35.38;31.58;;;;;;;16.07;56.95;101323.31;5011783;28;20618;-66
2023/03/19 11:01:10;;;;;;;31.92;29.23;;;;;;;16.10;56.65;101317.31;5023270;28;20026;-67
2023/03/19 11:03:37;;;;;;;29.85;27.08;;;;;;;16.12;56.96;101329.59;5014463;28;20489;-68
2023/03/19 11:06:26;;;;;;;30.85;28.58;;;;;;;16.14;56.80;101326.63;5011736;28;20038;-67
2023/03/19 11:08:59;;;;;;;35.42;31.98;;;;;;;16.15;56.85;101329.09;5020064;28;20046;-68
2023/03/19 11:11:43;;;;;;;30.92;28.52;;;;;;;16.15;56.76;101329.09;5029369;28;20116;-68